createdAt,value
2018-11-27T00:00:44.969Z,63.39
2018-11-27T00:03:14.602Z,63.37
2018-11-27T00:05:56.477Z,63.15
2018-11-27T00:08:38.104Z,63.38
2018-11-27T00:11:20.174Z,63.57
2018-11-27T00:14:07.857Z,63.91
2018-11-27T00:16:50.265Z,63.89
2018-11-27T00:19:31.804Z,63.54
2018-11-27T00:22:13.210Z,63.89
2018-11-27T00:24:43.076Z,64.44
2018-11-27T00:27:24.492Z,64.61
2018-11-27T00:29:54.394Z,64.61
2018-11-27T00:32:24.264Z,64.93
2018-11-27T00:35:21.813Z,64.50
2018-11-27T00:38:04.329Z,64.18
2018-11-27T00:40:46.081Z,64.23
2018-11-27T00:43:27.610Z,64.24
2018-11-27T00:46:09.424Z,64.55
2018-11-27T00:48:57.660Z,64.65
2018-11-27T00:51:39.828Z,64.55
2018-11-27T00:54:21.619Z,64.47
2018-11-27T00:57:03.332Z,64.03
2018-11-27T00:59:45.010Z,64.02
2018-11-27T01:02:32.935Z,64.33
2018-11-27T01:05:15.458Z,64.36
2018-11-27T01:07:56.846Z,64.26
2018-11-27T01:10:38.428Z,64.43
2018-11-27T01:13:08.301Z,64.67
2018-11-27T01:15:49.887Z,64.92
2018-11-27T01:18:31.200Z,64.71
2018-11-27T01:21:19.081Z,64.80
2018-11-27T01:24:01.201Z,64.80
2018-11-27T01:26:43.247Z,64.81
2018-11-27T01:29:25.013Z,64.88
2018-11-27T01:32:13.531Z,65.20
2018-11-27T01:34:55.048Z,64.78
2018-11-27T01:37:43.817Z,65.25
2018-11-27T01:40:26.727Z,65.53
2018-11-27T01:42:57.607Z,65.53
2018-11-27T01:45:39.844Z,65.57
2018-11-27T01:48:21.420Z,65.36
2018-11-27T01:51:03.121Z,65.35
2018-11-27T01:53:45.125Z,65.43
2018-11-27T01:56:26.961Z,65.11
2018-11-27T01:59:14.661Z,65.59
2018-11-27T02:01:56.453Z,65.16
2018-11-27T02:04:38.192Z,65.76
2018-11-27T02:07:19.730Z,64.89
2018-11-27T02:10:01.809Z,65.93
2018-11-27T02:12:31.650Z,65.70
2018-11-27T02:15:15.390Z,65.76
2018-11-27T02:17:57.617Z,65.67
2018-11-27T02:20:27.538Z,64.33
2018-11-27T02:23:09.890Z,64.65
2018-11-27T02:25:40.216Z,64.12
2018-11-27T02:28:22.532Z,64.93
2018-11-27T02:31:04.070Z,64.94
2018-11-27T02:33:45.873Z,64.64
2018-11-27T02:36:15.926Z,63.98
2018-11-27T02:38:45.857Z,63.66
2018-11-27T02:41:15.795Z,63.96
2018-11-27T02:44:03.464Z,63.71
2018-11-27T02:46:33.266Z,63.91
2018-11-27T02:49:15.758Z,63.40
2018-11-27T02:51:45.617Z,63.86
2018-11-27T02:54:27.263Z,63.43
2018-11-27T02:56:57.131Z,63.67
2018-11-27T02:59:39.254Z,64.00
2018-11-27T03:02:21.201Z,63.96
2018-11-27T03:05:03.711Z,63.33
2018-11-27T03:07:33.556Z,62.69
2018-11-27T03:10:03.846Z,63.21
2018-11-27T03:12:45.521Z,63.62
2018-11-27T03:15:27.354Z,63.32
2018-11-27T03:17:57.804Z,63.16
2018-11-27T03:20:39.835Z,62.83
2018-11-27T03:23:33.384Z,62.87
2018-11-27T03:26:14.887Z,63.72
2018-11-27T03:28:56.750Z,62.95
2018-11-27T03:31:38.382Z,62.72
2018-11-27T03:34:19.874Z,62.77
2018-11-27T03:37:08.045Z,62.81
2018-11-27T03:39:49.517Z,63.54
2018-11-27T03:42:31.261Z,62.57
2018-11-27T03:45:01.585Z,63.65
2018-11-27T03:47:43.753Z,63.85
2018-11-27T03:50:25.046Z,63.40
2018-11-27T03:53:06.527Z,62.62
2018-11-27T03:55:54.277Z,62.39
2018-11-27T03:58:36.973Z,62.51
2018-11-27T04:01:07.281Z,62.28
2018-11-27T04:03:48.782Z,63.26
2018-11-27T04:06:18.925Z,63.52
2018-11-27T04:09:00.611Z,63.74
2018-11-27T04:11:30.358Z,63.63
2018-11-27T04:14:11.854Z,63.90
2018-11-27T04:16:54.060Z,63.85
2018-11-27T04:19:36.238Z,63.61
2018-11-27T04:22:18.073Z,63.19
2018-11-27T04:24:59.654Z,63.17
2018-11-27T04:27:29.334Z,62.81
2018-11-27T04:30:14.653Z,63.13
2018-11-27T04:32:44.370Z,63.08
2018-11-27T04:35:26.656Z,63.07
2018-11-27T04:38:08.840Z,62.91
2018-11-27T04:40:50.509Z,62.68
2018-11-27T04:43:20.820Z,62.83
2018-11-27T04:45:50.810Z,63.29
2018-11-27T04:48:20.774Z,62.83
2018-11-27T04:54:03.558Z,62.67
2018-11-27T04:56:33.683Z,62.79
2018-11-27T04:59:22.053Z,63.29
2018-11-27T05:02:03.361Z,63.39
2018-11-27T05:04:33.510Z,62.70
2018-11-27T05:07:03.495Z,63.07
2018-11-27T05:09:33.461Z,63.04
2018-11-27T05:12:15.590Z,63.37
2018-11-27T05:14:45.531Z,63.79
2018-11-27T05:17:15.510Z,63.45
2018-11-27T05:19:45.470Z,63.55
2018-11-27T05:24:56.917Z,63.59
2018-11-27T05:27:54.609Z,63.54
2018-11-27T05:30:26.053Z,64.18
2018-11-27T05:32:56.279Z,64.17
2018-11-27T05:35:29.827Z,63.82
2018-11-27T05:38:01.603Z,64.41
2018-11-27T05:40:31.572Z,64.36
2018-11-27T05:43:12.470Z,64.25
2018-11-27T05:45:42.341Z,64.26
2018-11-27T05:48:12.179Z,64.69
2018-11-27T05:50:42.092Z,64.92
2018-11-27T05:53:11.777Z,64.96
2018-11-27T05:55:42.251Z,64.93
2018-11-27T05:58:24.230Z,64.95
2018-11-27T06:00:54.231Z,64.90
2018-11-27T06:03:24.244Z,65.30
2018-11-27T06:05:54.214Z,64.96
2018-11-27T06:08:24.155Z,65.03
2018-11-27T06:10:54.091Z,65.48
2018-11-27T06:13:24.934Z,65.11
2018-11-27T06:15:54.849Z,65.63
2018-11-27T06:18:24.836Z,65.60
2018-11-27T06:20:54.756Z,65.80
2018-11-27T06:23:24.745Z,65.64
2018-11-27T06:25:54.699Z,66.19
2018-11-27T06:28:24.650Z,66.38
2018-11-27T06:30:54.581Z,66.59
2018-11-27T06:33:24.490Z,66.54
2018-11-27T06:35:54.477Z,66.81
2018-11-27T06:38:24.608Z,66.73
2018-11-27T06:40:54.560Z,67.15
2018-11-27T06:43:24.456Z,66.90
2018-11-27T06:45:54.407Z,67.35
2018-11-27T06:48:24.308Z,67.60
2018-11-27T06:50:54.238Z,67.19
2018-11-27T06:53:24.162Z,67.39
2018-11-27T06:55:54.123Z,67.75
2018-11-27T06:58:24.080Z,67.97
2018-11-27T07:00:54.026Z,67.59
2018-11-27T07:03:23.933Z,68.00
2018-11-27T07:05:53.883Z,67.69
2018-11-27T07:08:23.854Z,67.76
2018-11-27T07:10:53.829Z,67.96
2018-11-27T07:13:25.437Z,67.98
2018-11-27T07:15:55.150Z,67.86
2018-11-27T07:18:24.894Z,67.59
2018-11-27T07:20:54.828Z,67.89
2018-11-27T07:23:24.704Z,68.27
2018-11-27T07:25:54.658Z,68.27
2018-11-27T07:28:24.547Z,67.58
2018-11-27T07:30:54.448Z,67.42
2018-11-27T07:33:24.319Z,68.03
2018-11-27T07:35:54.224Z,67.77
2018-11-27T07:38:24.164Z,67.76
2018-11-27T07:40:54.097Z,67.56
2018-11-27T07:43:24.117Z,67.28
2018-11-27T07:48:23.831Z,67.29
2018-11-27T07:50:53.667Z,67.30
2018-11-27T07:53:23.816Z,67.61
2018-11-27T07:55:54.197Z,67.37
2018-11-27T07:58:24.132Z,67.64
2018-11-27T08:00:54.090Z,67.21
2018-11-27T08:03:24.059Z,66.54
2018-11-27T08:05:53.958Z,66.15
2018-11-27T08:08:23.864Z,66.43
2018-11-27T08:10:53.783Z,65.72
2018-11-27T08:13:35.823Z,65.47
2018-11-27T08:16:24.447Z,65.49
2018-11-27T08:19:22.738Z,65.36
2018-11-27T08:22:11.227Z,64.94
2018-11-27T08:24:52.911Z,64.34
2018-11-27T08:27:34.201Z,64.60
2018-11-27T08:30:04.444Z,63.93
2018-11-27T08:32:46.012Z,64.27
2018-11-27T08:35:28.457Z,63.43
2018-11-27T08:38:16.515Z,63.71
2018-11-27T08:41:05.080Z,64.25
2018-11-27T08:43:46.923Z,63.22
2018-11-27T08:46:16.851Z,63.59
2018-11-27T08:48:46.664Z,62.48
2018-11-27T08:51:16.616Z,63.71
2018-11-27T08:53:58.709Z,61.98
2018-11-27T08:56:28.983Z,62.74
2018-11-27T08:58:59.103Z,62.14
2018-11-27T09:01:40.551Z,62.35
2018-11-27T09:04:10.934Z,62.05
2018-11-27T09:06:52.530Z,62.86
2018-11-27T09:09:34.289Z,62.27
2018-11-27T09:12:16.075Z,61.66
2018-11-27T09:14:46.139Z,61.58
2018-11-27T09:17:28.394Z,61.15
2018-11-27T09:19:58.366Z,61.65
2018-11-27T09:22:28.346Z,60.81
2018-11-27T09:24:58.257Z,60.84
2018-11-27T09:27:28.216Z,61.49
2018-11-27T09:29:58.114Z,60.67
2018-11-27T09:32:39.407Z,60.47
2018-11-27T09:35:09.401Z,60.08
2018-11-27T09:37:51.053Z,59.50
2018-11-27T09:40:33.248Z,59.36
2018-11-27T09:43:14.855Z,59.48
2018-11-27T09:45:45.733Z,59.17
2018-11-27T09:48:15.593Z,59.02
2018-11-27T09:50:45.497Z,58.71
2018-11-27T09:53:16.447Z,58.55
2018-11-27T09:55:46.293Z,58.92
2018-11-27T09:58:16.228Z,59.17
2018-11-27T10:00:46.088Z,57.90
2018-11-27T10:03:16.820Z,59.41
2018-11-27T10:05:46.691Z,58.09
2018-11-27T10:08:16.637Z,58.36
2018-11-27T10:10:46.569Z,57.34
2018-11-27T10:13:16.508Z,57.87
2018-11-27T10:15:46.387Z,56.21
2018-11-27T10:18:16.271Z,55.88
2018-11-27T10:20:46.151Z,56.69
2018-11-27T10:23:16.438Z,56.55
2018-11-27T10:25:46.325Z,56.22
2018-11-27T10:28:16.300Z,56.78
2018-11-27T10:31:05.984Z,56.98
2018-11-27T10:33:36.244Z,57.52
2018-11-27T10:36:06.212Z,56.64
2018-11-27T10:38:36.165Z,56.84
2018-11-27T10:41:18.940Z,57.29
2018-11-27T10:44:01.278Z,55.59
2018-11-27T10:46:31.151Z,56.97
2018-11-27T10:49:13.728Z,56.64
2018-11-27T10:51:43.619Z,55.29
2018-11-27T10:54:25.695Z,54.66
2018-11-27T10:56:55.820Z,55.38
2018-11-27T10:59:37.747Z,55.49
2018-11-27T11:02:24.387Z,54.51
2018-11-27T11:04:54.696Z,55.37
2018-11-27T11:07:36.966Z,55.85
2018-11-27T11:10:18.753Z,55.94
2018-11-27T11:13:01.310Z,54.41
2018-11-27T11:15:31.250Z,55.53
2018-11-27T11:18:13.142Z,54.74
2018-11-27T11:20:43.562Z,54.98
2018-11-27T11:23:26.014Z,55.40
2018-11-27T11:26:08.310Z,54.65
2018-11-27T11:28:38.282Z,55.00
2018-11-27T11:31:08.492Z,54.95
2018-11-27T11:33:51.504Z,54.48
2018-11-27T11:36:21.361Z,54.52
2018-11-27T11:39:03.188Z,54.34
2018-11-27T11:41:45.342Z,54.67
2018-11-27T11:44:15.449Z,55.26
2018-11-27T11:46:57.365Z,54.88
2018-11-27T11:49:39.185Z,54.34
2018-11-27T11:52:21.365Z,54.31
2018-11-27T11:55:03.235Z,55.12
2018-11-27T11:57:53.758Z,53.95
2018-11-27T12:00:43.166Z,54.03
2018-11-27T12:03:25.136Z,54.06
2018-11-27T12:05:55.012Z,54.61
2018-11-27T12:08:36.651Z,53.57
2018-11-27T12:11:06.804Z,53.80
2018-11-27T12:13:49.125Z,52.51
2018-11-27T12:16:30.814Z,53.31
2018-11-27T12:19:01.249Z,53.13
2018-11-27T12:21:43.375Z,52.81
2018-11-27T12:24:25.453Z,52.48
2018-11-27T12:26:55.547Z,52.14
2018-11-27T12:29:25.504Z,52.55
2018-11-27T12:32:07.916Z,51.74
2018-11-27T12:34:37.957Z,52.81
2018-11-27T12:37:07.901Z,52.19
2018-11-27T12:39:37.861Z,52.08
2018-11-27T12:42:20.256Z,52.03
2018-11-27T12:45:02.649Z,52.43
2018-11-27T12:47:32.558Z,52.37
2018-11-27T12:50:15.395Z,51.20
2018-11-27T12:55:39.269Z,52.51
2018-11-27T12:58:21.221Z,52.20
2018-11-27T13:01:03.115Z,51.93
2018-11-27T13:03:46.304Z,52.17
2018-11-27T13:06:35.442Z,52.40
2018-11-27T13:09:17.995Z,52.35
2018-11-27T13:11:48.008Z,51.95
2018-11-27T13:14:29.768Z,52.69
2018-11-27T13:17:11.825Z,52.43
2018-11-27T13:19:42.054Z,52.15
2018-11-27T13:22:12.114Z,52.30
2018-11-27T13:24:54.346Z,52.36
2018-11-27T13:27:36.372Z,52.57
2018-11-27T13:30:21.220Z,51.70
2018-11-27T13:33:06.312Z,52.73
2018-11-27T13:35:36.650Z,52.17
2018-11-27T13:38:18.374Z,51.84
2018-11-27T13:41:00.626Z,52.47
2018-11-27T13:43:43.015Z,52.42
2018-11-27T13:46:24.949Z,52.69
2018-11-27T13:49:07.136Z,53.47
2018-11-27T13:51:56.454Z,53.84
2018-11-27T13:54:26.412Z,53.22
2018-11-27T13:56:56.344Z,53.72
2018-11-27T13:59:26.373Z,54.24
2018-11-27T14:02:09.293Z,53.99
2018-11-27T14:04:51.569Z,53.42
2018-11-27T14:07:33.400Z,53.63
2018-11-27T14:10:15.640Z,53.95
2018-11-27T14:12:58.158Z,52.88
2018-11-27T14:15:39.821Z,54.00
2018-11-27T14:18:10.070Z,53.02
2018-11-27T14:20:51.925Z,53.32
2018-11-27T14:23:34.394Z,53.34
2018-11-27T14:26:16.146Z,53.38
2018-11-27T14:28:57.949Z,53.68
2018-11-27T14:31:28.313Z,53.38
2018-11-27T14:34:10.194Z,52.50
2018-11-27T14:36:52.278Z,52.52
2018-11-27T14:39:34.221Z,53.12
2018-11-27T14:42:04.179Z,52.30
2018-11-27T14:44:46.245Z,52.62
2018-11-27T14:47:16.219Z,52.63
2018-11-27T14:49:46.190Z,52.10
2018-11-27T14:52:28.346Z,52.95
2018-11-27T14:54:58.291Z,52.72
2018-11-27T14:57:40.211Z,52.63
2018-11-27T15:00:22.589Z,52.36
2018-11-27T15:03:05.279Z,52.40
2018-11-27T15:05:54.423Z,53.05
2018-11-27T15:08:24.424Z,53.46
2018-11-27T15:11:06.735Z,54.01
2018-11-27T15:13:48.957Z,54.63
2018-11-27T15:16:30.375Z,54.69
2018-11-27T15:19:00.600Z,54.43
2018-11-27T15:21:42.125Z,55.48
2018-11-27T15:24:23.673Z,55.40
2018-11-27T15:26:53.730Z,55.76
2018-11-27T15:29:23.704Z,55.56
2018-11-27T15:31:53.631Z,55.09
2018-11-27T15:34:35.298Z,55.02
2018-11-27T15:37:16.862Z,55.02
2018-11-27T15:39:46.900Z,55.25
2018-11-27T15:42:16.907Z,55.06
2018-11-27T15:44:59.417Z,55.29
2018-11-27T15:47:41.317Z,55.81
2018-11-27T15:50:23.264Z,55.63
2018-11-27T15:53:05.729Z,55.92
2018-11-27T15:55:58.627Z,56.32
2018-11-27T15:58:40.202Z,56.27
2018-11-27T16:01:22.218Z,56.86
2018-11-27T16:04:04.317Z,56.93
2018-11-27T16:06:34.435Z,56.98
2018-11-27T16:09:16.491Z,57.56
2018-11-27T16:11:58.953Z,57.23
2018-11-27T16:14:29.426Z,57.64
2018-11-27T16:16:59.440Z,57.72
2018-11-27T16:19:29.682Z,57.88
2018-11-27T16:21:59.598Z,57.98
2018-11-27T16:24:29.547Z,58.18
2018-11-27T16:26:59.514Z,58.61
2018-11-27T16:29:50.118Z,58.57
2018-11-27T16:32:31.401Z,58.66
2018-11-27T16:35:14.425Z,58.75
2018-11-27T16:37:46.353Z,58.97
2018-11-27T16:40:18.838Z,59.18
2018-11-27T16:42:48.854Z,59.54
2018-11-27T16:45:39.184Z,59.72
2018-11-27T16:48:09.196Z,59.72
2018-11-27T16:50:39.025Z,60.16
2018-11-27T16:53:09.251Z,59.82
2018-11-27T16:55:39.427Z,60.31
2018-11-27T16:58:09.350Z,60.53
2018-11-27T17:00:39.279Z,60.58
2018-11-27T17:03:10.030Z,60.50
2018-11-27T17:05:52.389Z,61.21
2018-11-27T17:08:22.757Z,61.47
2018-11-27T17:10:53.046Z,61.66
2018-11-27T17:13:23.005Z,61.75
2018-11-27T17:15:53.207Z,62.21
2018-11-27T17:18:23.578Z,62.08
2018-11-27T17:20:53.521Z,62.63
2018-11-27T17:23:23.470Z,62.53
2018-11-27T17:26:11.750Z,62.87
2018-11-27T17:28:41.719Z,62.69
2018-11-27T17:31:14.864Z,62.87
2018-11-27T17:34:05.143Z,62.83
2018-11-27T17:36:36.045Z,62.61
2018-11-27T17:39:11.422Z,63.54
2018-11-27T17:41:41.568Z,63.05
2018-11-27T17:44:17.135Z,63.57
2018-11-27T17:46:47.124Z,63.13
2018-11-27T17:49:17.127Z,63.18
2018-11-27T17:51:47.152Z,63.28
2018-11-27T17:54:17.160Z,63.37
2018-11-27T17:56:47.207Z,63.14
2018-11-27T17:59:17.179Z,63.16
2018-11-27T18:01:47.220Z,62.84
2018-11-27T18:04:17.153Z,62.71
2018-11-27T18:06:47.110Z,62.81
2018-11-27T18:09:17.082Z,62.70
2018-11-27T18:11:47.033Z,62.21
2018-11-27T18:14:16.935Z,62.43
2018-11-27T18:16:46.907Z,62.17
2018-11-27T18:19:16.868Z,62.34
2018-11-27T18:21:46.852Z,62.02
2018-11-27T18:24:16.830Z,62.22
2018-11-27T18:26:46.760Z,62.19
2018-11-27T18:29:16.738Z,62.58
2018-11-27T18:31:46.713Z,62.06
2018-11-27T18:34:28.917Z,61.96
2018-11-27T18:36:58.891Z,61.99
2018-11-27T18:39:29.111Z,61.72
2018-11-27T18:42:10.825Z,61.52
2018-11-27T18:44:40.905Z,61.31
2018-11-27T18:47:11.452Z,61.41
2018-11-27T18:49:41.401Z,61.47
2018-11-27T18:52:22.904Z,61.54
2018-11-27T18:54:53.340Z,61.45
2018-11-27T18:57:23.322Z,61.36
2018-11-27T18:59:53.311Z,61.29
2018-11-27T19:02:23.326Z,61.29
2018-11-27T19:04:53.370Z,61.25
2018-11-27T19:07:23.365Z,61.22
2018-11-27T19:09:53.368Z,61.58
2018-11-27T19:12:23.339Z,61.56
2018-11-27T19:14:53.296Z,61.64
2018-11-27T19:17:23.161Z,61.53
2018-11-27T19:20:05.094Z,61.44
2018-11-27T19:22:35.328Z,61.58
2018-11-27T19:25:07.028Z,61.42
2018-11-27T19:27:37.045Z,61.55
2018-11-27T19:30:15.999Z,61.79
2018-11-27T19:32:44.768Z,61.56
2018-11-27T19:35:17.479Z,61.77
2018-11-27T19:37:48.350Z,61.52
2018-11-27T19:40:20.061Z,61.67
2018-11-27T19:42:50.227Z,61.76
2018-11-27T19:45:26.119Z,61.65
2018-11-27T19:47:56.677Z,61.58
2018-11-27T19:50:28.705Z,61.95
2018-11-27T19:52:58.847Z,61.82
2018-11-27T19:55:28.866Z,61.53
2018-11-27T19:57:58.928Z,62.01
2018-11-27T20:00:29.974Z,61.70
2018-11-27T20:03:00.397Z,61.53
2018-11-27T20:05:42.510Z,61.85
2018-11-27T20:08:16.587Z,61.66
2018-11-27T20:10:46.780Z,61.99
2018-11-27T20:13:17.000Z,62.00
2018-11-27T20:15:46.999Z,62.15
2018-11-27T20:18:17.012Z,61.76
2018-11-27T20:20:47.014Z,62.37
2018-11-27T20:23:17.003Z,62.15
2018-11-27T20:25:46.976Z,62.11
2018-11-27T20:28:16.964Z,61.78
2018-11-27T20:30:47.047Z,61.82
2018-11-27T20:33:17.313Z,61.92
2018-11-27T20:35:47.348Z,62.11
2018-11-27T20:38:17.359Z,62.61
2018-11-27T20:40:48.455Z,62.12
2018-11-27T20:43:17.602Z,61.93
2018-11-27T20:45:47.648Z,62.37
2018-11-27T20:48:19.958Z,62.23
2018-11-27T20:50:52.341Z,62.01
2018-11-27T20:53:22.945Z,61.96
2018-11-27T20:55:53.018Z,62.01
2018-11-27T20:58:23.034Z,62.10
2018-11-27T21:00:53.823Z,62.13
2018-11-27T21:03:23.901Z,62.14
2018-11-27T21:05:54.004Z,62.07
2018-11-27T21:08:23.969Z,62.24
2018-11-27T21:10:54.081Z,61.94
2018-11-27T21:13:24.091Z,61.94
2018-11-27T21:15:54.167Z,61.86
2018-11-27T21:18:24.138Z,62.19
2018-11-27T21:20:54.160Z,62.08
2018-11-27T21:23:24.206Z,62.13
2018-11-27T21:25:56.434Z,61.81
2018-11-27T21:28:24.262Z,61.91
2018-11-27T21:30:54.254Z,61.81
2018-11-27T21:33:24.656Z,61.86
2018-11-27T21:35:54.645Z,61.63
2018-11-27T21:38:24.694Z,61.64
2018-11-27T21:40:54.684Z,62.05
2018-11-27T21:43:24.707Z,61.51
2018-11-27T21:45:54.705Z,61.76
2018-11-27T21:48:24.790Z,61.41
2018-11-27T21:50:58.714Z,61.50
2018-11-27T21:53:28.887Z,61.82
2018-11-27T21:55:58.876Z,61.61
2018-11-27T21:58:29.128Z,61.58
2018-11-27T22:00:59.124Z,61.24
2018-11-27T22:03:29.088Z,61.59
2018-11-27T22:05:59.109Z,61.38
2018-11-27T22:08:29.131Z,61.75
2018-11-27T22:10:59.112Z,61.48
2018-11-27T22:13:29.117Z,61.93
2018-11-27T22:15:59.167Z,61.36
2018-11-27T22:18:29.149Z,61.88
2018-11-27T22:20:59.216Z,61.71
2018-11-27T22:23:29.246Z,61.45
2018-11-27T22:25:59.314Z,61.74
2018-11-27T22:28:29.333Z,61.81
2018-11-27T22:30:59.376Z,61.62
2018-11-27T22:33:29.389Z,61.77
2018-11-27T22:35:59.385Z,62.05
2018-11-27T22:38:29.329Z,61.52
2018-11-27T22:40:59.357Z,61.72
2018-11-27T22:43:29.268Z,61.91
2018-11-27T22:45:59.315Z,62.18
2018-11-27T22:48:29.302Z,61.62
2018-11-27T22:50:59.266Z,62.16
2018-11-27T22:53:29.261Z,61.63
2018-11-27T22:56:00.314Z,62.11
2018-11-27T22:58:29.278Z,61.97
2018-11-27T23:00:59.297Z,61.85
2018-11-27T23:03:29.309Z,62.06
2018-11-27T23:05:59.350Z,62.31
2018-11-27T23:08:29.326Z,61.86
2018-11-27T23:10:59.323Z,61.96
2018-11-27T23:13:29.327Z,62.46
2018-11-27T23:15:59.348Z,62.34
2018-11-27T23:18:29.246Z,62.41
2018-11-27T23:20:59.185Z,62.02
2018-11-27T23:23:29.223Z,62.28
2018-11-27T23:25:59.285Z,62.02
2018-11-27T23:28:29.739Z,62.15
2018-11-27T23:30:59.845Z,62.29
2018-11-27T23:33:30.356Z,61.83
2018-11-27T23:36:00.366Z,61.90
2018-11-27T23:38:30.312Z,62.57
2018-11-27T23:41:00.285Z,62.06
2018-11-27T23:43:30.276Z,62.52
2018-11-27T23:46:00.366Z,62.42
2018-11-27T23:48:30.364Z,61.97
2018-11-27T23:51:00.394Z,62.10
2018-11-27T23:53:30.342Z,62.16
2018-11-27T23:56:00.301Z,62.51
2018-11-27T23:58:30.295Z,62.34
